Coral Topaz — 3ELB7 — position and weather

sailwx.info

Track history (hours):
 
Tides and Currents Weather Stations Pressure Air Temp Water Temp Dewpoint Dewpoint Depression Visibility Wind Speed Wind Dir Waves Ship Positions

Coral Topaz

Last reported at 2018-Feb-11 12:43 UTC. Time now 2018-Feb-19 04:16 UTC.
Position N 32°60' E 132°10'.

Length 225 m; draft 8.7 m.

Type: Cargo ship. MMSI: 372904000.

Date/timePositionNaut miles runAvg speedWind from/ knotsBaromVisibWave heightAir tempDewpointWater temp
2018-Feb-11 12:43N 32°60' E 132°10'313.1
2018-Feb-11 12:29N 33°02' E 132°08'912.8
2018-Feb-11 11:45N 33°11' E 132°03'313.0
2018-Feb-11 11:30N 33°13' E 132°01'4 9.1
2018-Feb-11 11:00N 33°18' E 131°59'612.3
2018-Feb-11 10:30N 33°24' E 132°01'1213.3
2018-Feb-11 09:37N 33°32' E 132°11'1112.8
2018-Feb-11 08:47N 33°40' E 132°20'412.9
2018-Feb-11 08:29N 33°42' E 132°23'812.9
2018-Feb-11 07:52N 33°48' E 132°30'613.1
2018-Feb-11 07:25N 33°52' E 132°35'513.0
2018-Feb-11 07:00N 33°56' E 132°40'612.7
2018-Feb-11 06:30N 34°01' E 132°45'  
2018-Feb-04 00:48N 34°27' E 134°05'412.1
2018-Feb-04 00:27N 34°25' E 134°10'612.1
2018-Feb-03 23:58N 34°24' E 134°17'5 9.9
2018-Feb-03 23:30N 34°25' E 134°23'612.4
2018-Feb-03 23:01N 34°27' E 134°30'612.0
2018-Feb-03 22:30N 34°30' E 134°36'611.8
2018-Feb-03 22:00N 34°32' E 134°43'611.3
2018-Feb-03 21:30N 34°34' E 134°49'510.4
2018-Feb-03 21:00N 34°36' E 134°55'4 9.0
2018-Feb-03 20:30N 34°37' E 135°00'4 7.5
2018-Feb-03 20:00N 34°36' E 135°04'12 7.9
2018-Feb-03 18:31N 34°24' E 135°05'510.9
2018-Feb-03 18:01N 34°20' E 135°01'5 9.3
2018-Feb-03 17:30N 34°15' E 134°59'5 9.7
2018-Feb-03 17:00N 34°10' E 134°60'7 7.2
2018-Feb-03 16:00N 34°03' E 134°58'3 5.0
2018-Feb-03 15:30N 34°01' E 134°58'2 5.0
2018-Feb-03 15:01N 33°58' E 134°58'3 6.6
2018-Feb-03 14:30N 33°55' E 134°57'3 7.0
2018-Feb-03 14:00N 33°51' E 134°57'4 8.5
2018-Feb-03 13:31N 33°47' E 134°57'4 8.6
2018-Feb-03 13:00N 33°43' E 134°57'6 8.1
2018-Feb-03 12:17N 33°37' E 134°57'0 0.2
2018-Feb-03 12:00N 33°37' E 134°57'  
Track history (hours):
 
Tides and Currents Weather Stations Pressure Air Temp Water Temp Dewpoint Dewpoint Depression Visibility Wind Speed Wind Dir Waves Ship Positions

Coral Topaz

Last reported at 2018-Feb-11 12:43 UTC. Time now 2018-Feb-19 04:16 UTC.
Position N 32°60' E 132°10'.

Length 225 m; draft 8.7 m.

Type: Cargo ship. MMSI: 372904000.

Date/timePositionNaut miles runAvg speedWind from/ knotsBaromVisibWave heightAir tempDewpointWater temp
2018-Feb-11 12:43N 32°60' E 132°10'313.1
2018-Feb-11 12:29N 33°02' E 132°08'912.8
2018-Feb-11 11:45N 33°11' E 132°03'313.0
2018-Feb-11 11:30N 33°13' E 132°01'4 9.1
2018-Feb-11 11:00N 33°18' E 131°59'612.3
2018-Feb-11 10:30N 33°24' E 132°01'1213.3
2018-Feb-11 09:37N 33°32' E 132°11'1112.8
2018-Feb-11 08:47N 33°40' E 132°20'412.9
2018-Feb-11 08:29N 33°42' E 132°23'812.9
2018-Feb-11 07:52N 33°48' E 132°30'613.1
2018-Feb-11 07:25N 33°52' E 132°35'513.0
2018-Feb-11 07:00N 33°56' E 132°40'612.7
2018-Feb-11 06:30N 34°01' E 132°45'  
2018-Feb-04 00:48N 34°27' E 134°05'412.1
2018-Feb-04 00:27N 34°25' E 134°10'612.1
2018-Feb-03 23:58N 34°24' E 134°17'5 9.9
2018-Feb-03 23:30N 34°25' E 134°23'612.4
2018-Feb-03 23:01N 34°27' E 134°30'612.0
2018-Feb-03 22:30N 34°30' E 134°36'611.8
2018-Feb-03 22:00N 34°32' E 134°43'611.3
2018-Feb-03 21:30N 34°34' E 134°49'510.4
2018-Feb-03 21:00N 34°36' E 134°55'4 9.0
2018-Feb-03 20:30N 34°37' E 135°00'4 7.5
2018-Feb-03 20:00N 34°36' E 135°04'12 7.9
2018-Feb-03 18:31N 34°24' E 135°05'510.9
2018-Feb-03 18:01N 34°20' E 135°01'5 9.3
2018-Feb-03 17:30N 34°15' E 134°59'5 9.7
2018-Feb-03 17:00N 34°10' E 134°60'7 7.2
2018-Feb-03 16:00N 34°03' E 134°58'3 5.0
2018-Feb-03 15:30N 34°01' E 134°58'2 5.0
2018-Feb-03 15:01N 33°58' E 134°58'3 6.6
2018-Feb-03 14:30N 33°55' E 134°57'3 7.0
2018-Feb-03 14:00N 33°51' E 134°57'4 8.5
2018-Feb-03 13:31N 33°47' E 134°57'4 8.6
2018-Feb-03 13:00N 33°43' E 134°57'6 8.1
2018-Feb-03 12:17N 33°37' E 134°57'0 0.2
2018-Feb-03 12:00N 33°37' E 134°57'  

Dump ship's entire track history